Leasburg, Missouri
Current Conditions -  °F | °C
As of 7:53 PM on Saturday 22 Nov 2014 (Local Time) from KVIH Reporting Station
Light Rain Light Rain  
Wind Chill: 52°   Ceiling: 1000
Heat Index: 52°   Visibility: 10mi
Dew Point: 49°   Wind: 16mph
Humidity: 89%   Direction: 170°S
Pressure: 29.87"   Gusts: 24mph
Location:  38.09°N, 91.3°W
Report Text: KVIH 230153Z AUTO 17014G21KT 10SM -RA OVC010 11/09 A2987 RMK AO2 RAB41 CIG 008V013 SLP115 P0000 T01110094
Loading
Personal Weather Stations






























Interactive Weather Map New forecast layout! Learn more

10-Day Weather Forecast

Advertisements
Track Severe Weather on mobile